createdAt,value
2022-12-24T00:12:50.680Z,5.62
2022-12-24T00:32:50.720Z,5.68
2022-12-24T00:52:50.764Z,5.50
2022-12-24T01:12:50.712Z,5.56
2022-12-24T01:32:50.732Z,5.50
2022-12-24T01:52:50.640Z,5.43
2022-12-24T02:12:50.651Z,5.43
2022-12-24T02:32:50.666Z,5.31
2022-12-24T02:52:50.714Z,5.50
2022-12-24T03:12:50.702Z,5.68
2022-12-24T03:32:50.600Z,5.50
2022-12-24T03:52:50.620Z,5.62
2022-12-24T04:12:50.616Z,5.43
2022-12-24T04:32:50.613Z,5.50
2022-12-24T04:52:50.635Z,5.56
2022-12-24T05:12:50.544Z,5.50
2022-12-24T05:32:50.558Z,5.43
2022-12-24T05:52:50.572Z,5.56
2022-12-24T06:12:50.580Z,5.56
2022-12-24T06:32:50.494Z,5.43
2022-12-24T06:52:50.513Z,5.50
2022-12-24T07:12:50.519Z,5.50
2022-12-24T07:32:50.541Z,5.56
2022-12-24T07:52:50.550Z,5.50
2022-12-24T08:12:50.529Z,5.50
2022-12-24T08:32:50.566Z,5.62
2022-12-24T08:52:50.486Z,5.56
2022-12-24T09:12:50.619Z,5.68
2022-12-24T09:32:50.454Z,5.62
2022-12-24T09:52:50.445Z,5.56
2022-12-24T10:12:50.544Z,5.75
2022-12-24T10:32:50.510Z,5.50
2022-12-24T10:52:50.357Z,5.56
2022-12-24T11:12:50.375Z,5.56
2022-12-24T11:32:50.532Z,5.62
2022-12-24T11:52:50.399Z,5.68
2022-12-24T12:12:50.442Z,5.62
2022-12-24T12:32:50.466Z,5.68
2022-12-24T12:52:50.391Z,5.68
2022-12-24T13:12:50.420Z,5.68
2022-12-24T13:32:50.391Z,5.68
2022-12-24T13:52:50.286Z,5.68
2022-12-24T14:12:50.313Z,5.68
2022-12-24T14:32:50.412Z,5.75
2022-12-24T14:52:50.242Z,5.75
2022-12-24T15:12:50.256Z,5.93
2022-12-24T15:32:50.269Z,5.50
2022-12-24T15:52:50.335Z,5.62
2022-12-24T16:12:50.343Z,5.56
2022-12-24T16:32:50.248Z,5.62
2022-12-24T16:52:50.310Z,5.56
2022-12-24T17:12:50.234Z,5.75
2022-12-24T17:32:50.243Z,5.56
2022-12-24T17:52:50.167Z,5.43
2022-12-24T18:12:50.209Z,5.50
2022-12-24T18:32:50.187Z,5.25
2022-12-24T18:52:50.204Z,5.06
2022-12-24T19:12:50.247Z,4.93
2022-12-24T19:32:50.150Z,4.93
2022-12-24T19:52:50.183Z,4.93
2022-12-24T20:12:50.172Z,4.93
2022-12-24T20:32:50.176Z,4.93
2022-12-24T20:52:50.187Z,4.93
2022-12-24T21:12:50.128Z,4.93
2022-12-24T21:52:50.127Z,4.93
2022-12-24T22:12:50.178Z,4.93
2022-12-24T22:32:50.161Z,4.93
2022-12-24T22:52:50.079Z,4.93
2022-12-24T23:12:50.110Z,5.18
2022-12-24T23:32:50.101Z,4.93
2022-12-24T23:52:50.114Z,4.93
